sensor_id;sensor_type;location;lat;lon;timestamp;pressure;altitude;pressure_sealevel;temperature;humidity
77871;BME280;67067;46.850;7.578;2023-12-20T00:00:44;95620.75;;;1.21;56.92
77871;BME280;67067;46.850;7.578;2023-12-20T00:01:46;95625.13;;;1.20;56.78
77871;BME280;67067;46.850;7.578;2023-12-20T00:02:47;95619.91;;;1.20;57.06
77871;BME280;67067;46.850;7.578;2023-12-20T00:03:49;95617.50;;;1.19;57.06
77871;BME280;67067;46.850;7.578;2023-12-20T00:04:51;95617.03;;;1.15;57.14
77871;BME280;67067;46.850;7.578;2023-12-20T00:05:53;95617.03;;;1.15;57.13
77871;BME280;67067;46.850;7.578;2023-12-20T00:06:54;95617.41;;;1.12;57.35
77871;BME280;67067;46.850;7.578;2023-12-20T00:07:56;95626.06;;;1.13;57.39
77871;BME280;67067;46.850;7.578;2023-12-20T00:08:58;95620.03;;;1.12;57.42
77871;BME280;67067;46.850;7.578;2023-12-20T00:10:00;95617.03;;;1.15;57.04
77871;BME280;67067;46.850;7.578;2023-12-20T00:11:01;95612.47;;;1.17;57.26
77871;BME280;67067;46.850;7.578;2023-12-20T00:12:03;95615.88;;;1.18;57.43
77871;BME280;67067;46.850;7.578;2023-12-20T00:13:05;95611.94;;;1.22;57.44
77871;BME280;67067;46.850;7.578;2023-12-20T00:14:08;95599.06;;;1.20;57.38
77871;BME280;67067;46.850;7.578;2023-12-20T00:15:10;95605.81;;;1.15;57.75
77871;BME280;67067;46.850;7.578;2023-12-20T00:16:11;95598.69;;;1.08;57.67
77871;BME280;67067;46.850;7.578;2023-12-20T00:17:14;95602.75;;;1.11;57.69
77871;BME280;67067;46.850;7.578;2023-12-20T00:18:16;95599.06;;;1.20;57.33
77871;BME280;67067;46.850;7.578;2023-12-20T00:19:18;95600.50;;;1.23;57.43
77871;BME280;67067;46.850;7.578;2023-12-20T00:20:19;95597.31;;;1.28;57.49
77871;BME280;67067;46.850;7.578;2023-12-20T00:21:22;95584.75;;;1.31;57.33
77871;BME280;67067;46.850;7.578;2023-12-20T00:22:24;95590.38;;;1.35;57.13
77871;BME280;67067;46.850;7.578;2023-12-20T00:23:27;95602.06;;;1.39;57.06
77871;BME280;67067;46.850;7.578;2023-12-20T00:24:29;95596.84;;;1.39;57.19
77871;BME280;67067;46.850;7.578;2023-12-20T00:25:31;95592.09;;;1.43;57.22
77871;BME280;67067;46.850;7.578;2023-12-20T00:26:32;95598.53;;;1.47;57.18
77871;BME280;67067;46.850;7.578;2023-12-20T00:27:34;95604.22;;;1.50;56.92
77871;BME280;67067;46.850;7.578;2023-12-20T00:28:36;95602.22;;;1.52;57.07
77871;BME280;67067;46.850;7.578;2023-12-20T00:29:37;95615.53;;;1.58;57.03
77871;BME280;67067;46.850;7.578;2023-12-20T00:30:39;95617.94;;;1.59;56.93
77871;BME280;67067;46.850;7.578;2023-12-20T00:31:41;95617.16;;;1.59;56.83
77871;BME280;67067;46.850;7.578;2023-12-20T00:32:43;95618.19;;;1.64;56.77
77871;BME280;67067;46.850;7.578;2023-12-20T00:33:48;95621.53;;;1.58;56.82
77871;BME280;67067;46.850;7.578;2023-12-20T00:34:49;95619.56;;;1.60;56.25
77871;BME280;67067;46.850;7.578;2023-12-20T00:35:53;95622.72;;;1.56;56.40
77871;BME280;67067;46.850;7.578;2023-12-20T00:36:57;95626.88;;;1.50;56.34
77871;BME280;67067;46.850;7.578;2023-12-20T00:38:04;95624.19;;;1.43;56.74
77871;BME280;67067;46.850;7.578;2023-12-20T00:39:06;95626.78;;;1.43;56.61
77871;BME280;67067;46.850;7.578;2023-12-20T00:40:10;95633.38;;;1.39;56.54
77871;BME280;67067;46.850;7.578;2023-12-20T00:41:12;95634.56;;;1.36;56.78
77871;BME280;67067;46.850;7.578;2023-12-20T00:42:14;95638.16;;;1.35;56.84
77871;BME280;67067;46.850;7.578;2023-12-20T00:43:16;95628.63;;;1.28;56.90
77871;BME280;67067;46.850;7.578;2023-12-20T00:44:17;95625.22;;;1.27;57.04
77871;BME280;67067;46.850;7.578;2023-12-20T00:45:21;95615.06;;;1.17;57.17
77871;BME280;67067;46.850;7.578;2023-12-20T00:46:23;95610.47;;;1.19;57.23
77871;BME280;67067;46.850;7.578;2023-12-20T00:47:24;95601.84;;;1.19;57.23
77871;BME280;67067;46.850;7.578;2023-12-20T00:48:26;95585.38;;;1.18;57.25
77871;BME280;67067;46.850;7.578;2023-12-20T00:49:33;95578.03;;;1.07;57.38
77871;BME280;67067;46.850;7.578;2023-12-20T00:50:36;95576.94;;;1.16;56.94
77871;BME280;67067;46.850;7.578;2023-12-20T00:51:37;95581.38;;;1.16;56.13
77871;BME280;67067;46.850;7.578;2023-12-20T00:52:41;95592.72;;;1.30;56.40
77871;BME280;67067;46.850;7.578;2023-12-20T00:53:43;95591.00;;;1.37;56.59
77871;BME280;67067;46.850;7.578;2023-12-20T00:54:50;95577.22;;;1.43;56.62
77871;BME280;67067;46.850;7.578;2023-12-20T00:55:54;95585.16;;;1.35;56.55
77871;BME280;67067;46.850;7.578;2023-12-20T00:56:56;95585.50;;;1.47;56.48
77871;BME280;67067;46.850;7.578;2023-12-20T00:57:58;95579.13;;;1.49;56.31
77871;BME280;67067;46.850;7.578;2023-12-20T00:59:00;95585.69;;;1.45;56.49
77871;BME280;67067;46.850;7.578;2023-12-20T01:00:02;95586.03;;;1.42;56.54
77871;BME280;67067;46.850;7.578;2023-12-20T01:01:04;95587.03;;;1.41;56.55
77871;BME280;67067;46.850;7.578;2023-12-20T01:02:06;95587.13;;;1.48;56.32
77871;BME280;67067;46.850;7.578;2023-12-20T01:03:07;95588.31;;;1.45;56.62
77871;BME280;67067;46.850;7.578;2023-12-20T01:04:09;95590.09;;;1.45;56.28
77871;BME280;67067;46.850;7.578;2023-12-20T01:05:13;95592.63;;;1.38;56.77
77871;BME280;67067;46.850;7.578;2023-12-20T01:06:15;95591.47;;;1.41;56.62
77871;BME280;67067;46.850;7.578;2023-12-20T01:07:17;95585.41;;;1.40;56.81
77871;BME280;67067;46.850;7.578;2023-12-20T01:08:19;95580.81;;;1.42;56.75
77871;BME280;67067;46.850;7.578;2023-12-20T01:09:23;95577.22;;;1.43;56.69
77871;BME280;67067;46.850;7.578;2023-12-20T01:10:27;95579.66;;;1.45;56.87
77871;BME280;67067;46.850;7.578;2023-12-20T01:11:30;95579.66;;;1.45;56.88
77871;BME280;67067;46.850;7.578;2023-12-20T01:12:32;95573.06;;;1.49;56.46
77871;BME280;67067;46.850;7.578;2023-12-20T01:13:36;95569.69;;;1.48;56.51
77871;BME280;67067;46.850;7.578;2023-12-20T01:14:40;95568.84;;;1.48;56.42
77871;BME280;67067;46.850;7.578;2023-12-20T01:15:42;95567.50;;;1.52;56.64
77871;BME280;67067;46.850;7.578;2023-12-20T01:16:44;95572.38;;;1.40;56.56
77871;BME280;67067;46.850;7.578;2023-12-20T01:17:45;95576.19;;;1.37;56.80
77871;BME280;67067;46.850;7.578;2023-12-20T01:18:48;95575.28;;;1.45;56.71
77871;BME280;67067;46.850;7.578;2023-12-20T01:19:51;95585.13;;;1.50;56.77
77871;BME280;67067;46.850;7.578;2023-12-20T01:20:52;95580.38;;;1.54;56.47
77871;BME280;67067;46.850;7.578;2023-12-20T01:21:54;95571.72;;;1.53;56.39
77871;BME280;67067;46.850;7.578;2023-12-20T01:22:56;95578.53;;;1.54;56.38
77871;BME280;67067;46.850;7.578;2023-12-20T01:23:58;95581.72;;;1.49;56.58
77871;BME280;67067;46.850;7.578;2023-12-20T01:25:04;95587.19;;;1.55;56.25
77871;BME280;67067;46.850;7.578;2023-12-20T01:26:06;95590.81;;;1.54;56.31
77871;BME280;67067;46.850;7.578;2023-12-20T01:27:10;95584.34;;;1.49;56.67
77871;BME280;67067;46.850;7.578;2023-12-20T01:28:14;95578.91;;;1.51;56.67
77871;BME280;67067;46.850;7.578;2023-12-20T01:29:18;95595.56;;;1.50;56.63
77871;BME280;67067;46.850;7.578;2023-12-20T01:30:19;95589.81;;;1.55;56.35
77871;BME280;67067;46.850;7.578;2023-12-20T01:31:24;95599.63;;;1.52;56.64
77871;BME280;67067;46.850;7.578;2023-12-20T01:32:25;95600.25;;;1.55;56.45
77871;BME280;67067;46.850;7.578;2023-12-20T01:33:27;95598.88;;;1.59;56.59
77871;BME280;67067;46.850;7.578;2023-12-20T01:34:33;95583.84;;;1.61;56.10
77871;BME280;67067;46.850;7.578;2023-12-20T01:35:38;95576.03;;;1.61;55.62
77871;BME280;67067;46.850;7.578;2023-12-20T01:36:39;95572.41;;;1.62;55.03
77871;BME280;67067;46.850;7.578;2023-12-20T01:37:41;95573.66;;;1.66;54.52
77871;BME280;67067;46.850;7.578;2023-12-20T01:38:45;95572.47;;;1.69;54.71
77871;BME280;67067;46.850;7.578;2023-12-20T01:39:47;95575.88;;;1.69;54.11
77871;BME280;67067;46.850;7.578;2023-12-20T01:40:49;95575.06;;;1.69;54.48
77871;BME280;67067;46.850;7.578;2023-12-20T01:41:50;95570.19;;;1.59;54.77
77871;BME280;67067;46.850;7.578;2023-12-20T01:43:06;95569.72;;;1.55;55.11
77871;BME280;67067;46.850;7.578;2023-12-20T01:44:08;95567.25;;;1.69;53.71
77871;BME280;67067;46.850;7.578;2023-12-20T01:45:10;95566.81;;;1.87;52.15
77871;BME280;67067;46.850;7.578;2023-12-20T01:46:14;95570.53;;;1.99;51.45
77871;BME280;67067;46.850;7.578;2023-12-20T01:47:16;95566.69;;;2.17;51.31
77871;BME280;67067;46.850;7.578;2023-12-20T01:48:18;95570.38;;;2.29;50.45
77871;BME280;67067;46.850;7.578;2023-12-20T01:49:21;95570.00;;;2.32;50.28
77871;BME280;67067;46.850;7.578;2023-12-20T01:50:25;95570.47;;;2.43;50.98
77871;BME280;67067;46.850;7.578;2023-12-20T01:51:28;95567.66;;;2.44;50.31
77871;BME280;67067;46.850;7.578;2023-12-20T01:52:30;95571.31;;;2.50;51.10
77871;BME280;67067;46.850;7.578;2023-12-20T01:53:31;95566.53;;;2.53;50.36
77871;BME280;67067;46.850;7.578;2023-12-20T01:54:34;95565.75;;;2.60;50.73
77871;BME280;67067;46.850;7.578;2023-12-20T01:55:36;95571.41;;;2.63;51.05
77871;BME280;67067;46.850;7.578;2023-12-20T01:56:39;95561.31;;;2.53;52.02
77871;BME280;67067;46.850;7.578;2023-12-20T01:57:41;95561.06;;;2.48;52.39
77871;BME280;67067;46.850;7.578;2023-12-20T01:58:44;95566.91;;;2.50;52.22
77871;BME280;67067;46.850;7.578;2023-12-20T01:59:47;95551.81;;;2.46;52.49
77871;BME280;67067;46.850;7.578;2023-12-20T02:12:34;95578.69;;;2.75;52.99
77871;BME280;67067;46.850;7.578;2023-12-20T02:13:37;95581.06;;;2.70;53.30
77871;BME280;67067;46.850;7.578;2023-12-20T02:14:38;95570.31;;;2.51;53.48
77871;BME280;67067;46.850;7.578;2023-12-20T02:15:40;95570.59;;;2.63;53.73
77871;BME280;67067;46.850;7.578;2023-12-20T02:16:44;95569.78;;;2.62;53.48
77871;BME280;67067;46.850;7.578;2023-12-20T02:17:46;95573.00;;;2.64;53.31
77871;BME280;67067;46.850;7.578;2023-12-20T02:18:49;95573.81;;;2.65;53.46
77871;BME280;67067;46.850;7.578;2023-12-20T02:19:51;95576.63;;;2.63;53.47
77871;BME280;67067;46.850;7.578;2023-12-20T02:20:53;95576.00;;;2.61;53.28
77871;BME280;67067;46.850;7.578;2023-12-20T02:22:11;95572.94;;;2.51;53.70
77871;BME280;67067;46.850;7.578;2023-12-20T02:23:13;95578.22;;;2.58;53.40
77871;BME280;67067;46.850;7.578;2023-12-20T02:24:17;95572.78;;;2.59;53.59
77871;BME280;67067;46.850;7.578;2023-12-20T02:25:19;95579.00;;;2.58;53.45
77871;BME280;67067;46.850;7.578;2023-12-20T02:26:21;95574.41;;;2.60;53.66
77871;BME280;67067;46.850;7.578;2023-12-20T02:27:23;95579.22;;;2.63;53.57
77871;BME280;67067;46.850;7.578;2023-12-20T02:28:26;95580.66;;;2.66;53.10
77871;BME280;67067;46.850;7.578;2023-12-20T02:29:28;95578.22;;;2.64;53.13
77871;BME280;67067;46.850;7.578;2023-12-20T02:30:30;95584.06;;;2.66;52.96
77871;BME280;67067;46.850;7.578;2023-12-20T02:31:31;95590.44;;;2.50;53.49
77871;BME280;67067;46.850;7.578;2023-12-20T02:32:34;95590.06;;;2.60;53.61
77871;BME280;67067;46.850;7.578;2023-12-20T02:33:36;95592.91;;;2.65;53.29
77871;BME280;67067;46.850;7.578;2023-12-20T02:34:38;95593.75;;;2.66;53.45
77871;BME280;67067;46.850;7.578;2023-12-20T02:35:39;95594.97;;;2.70;53.12
77871;BME280;67067;46.850;7.578;2023-12-20T02:36:41;95585.28;;;2.64;52.92
77871;BME280;67067;46.850;7.578;2023-12-20T02:37:43;95589.81;;;2.48;52.39
77871;BME280;67067;46.850;7.578;2023-12-20T02:38:45;95586.22;;;2.56;52.42
77871;BME280;67067;46.850;7.578;2023-12-20T02:39:47;95600.66;;;2.45;52.54
77871;BME280;67067;46.850;7.578;2023-12-20T02:40:48;95605.53;;;2.55;52.31
77871;BME280;67067;46.850;7.578;2023-12-20T02:41:51;95592.91;;;2.59;52.36
77871;BME280;67067;46.850;7.578;2023-12-20T02:42:52;95599.91;;;2.58;52.30
77871;BME280;67067;46.850;7.578;2023-12-20T02:43:54;95598.34;;;2.64;52.41
77871;BME280;67067;46.850;7.578;2023-12-20T02:44:56;95595.53;;;2.65;52.24
77871;BME280;67067;46.850;7.578;2023-12-20T02:46:00;95597.53;;;2.63;51.88
77871;BME280;67067;46.850;7.578;2023-12-20T02:47:04;95596.97;;;2.68;51.78
77871;BME280;67067;46.850;7.578;2023-12-20T02:48:06;95598.00;;;2.74;51.56
77871;BME280;67067;46.850;7.578;2023-12-20T02:49:10;95592.03;;;2.80;51.40
77871;BME280;67067;46.850;7.578;2023-12-20T02:50:12;95601.69;;;2.86;51.57
77871;BME280;67067;46.850;7.578;2023-12-20T02:51:14;95588.41;;;2.81;52.06
77871;BME280;67067;46.850;7.578;2023-12-20T02:52:16;95597.00;;;2.75;52.26
77871;BME280;67067;46.850;7.578;2023-12-20T02:53:17;95592.03;;;2.87;52.00
77871;BME280;67067;46.850;7.578;2023-12-20T02:54:19;95590.19;;;2.80;52.34
77871;BME280;67067;46.850;7.578;2023-12-20T02:55:21;95592.88;;;2.94;52.39
77871;BME280;67067;46.850;7.578;2023-12-20T02:56:23;95586.63;;;2.95;52.34
77871;BME280;67067;46.850;7.578;2023-12-20T02:57:24;95586.19;;;2.85;52.48
77871;BME280;67067;46.850;7.578;2023-12-20T02:58:29;95588.25;;;2.96;52.19
77871;BME280;67067;46.850;7.578;2023-12-20T02:59:31;95583.63;;;2.98;52.07
77871;BME280;67067;46.850;7.578;2023-12-20T03:00:32;95590.31;;;3.01;51.94
77871;BME280;67067;46.850;7.578;2023-12-20T03:01:42;95588.28;;;3.03;51.96
77871;BME280;67067;46.850;7.578;2023-12-20T03:02:44;95587.69;;;3.07;51.58
77871;BME280;67067;46.850;7.578;2023-12-20T03:03:46;95587.69;;;3.01;51.74
77871;BME280;67067;46.850;7.578;2023-12-20T03:04:47;95590.13;;;3.09;51.84
77871;BME280;67067;46.850;7.578;2023-12-20T03:05:50;95579.88;;;3.14;51.93
77871;BME280;67067;46.850;7.578;2023-12-20T03:06:52;95589.31;;;3.08;51.88
77871;BME280;67067;46.850;7.578;2023-12-20T03:07:53;95581.03;;;2.98;52.30
77871;BME280;67067;46.850;7.578;2023-12-20T03:08:55;95586.50;;;3.10;52.17
77871;BME280;67067;46.850;7.578;2023-12-20T03:09:59;95588.34;;;3.16;52.39
77871;BME280;67067;46.850;7.578;2023-12-20T03:11:20;95585.56;;;3.18;52.27
77871;BME280;67067;46.850;7.578;2023-12-20T03:12:23;95584.34;;;3.20;52.01
77871;BME280;67067;46.850;7.578;2023-12-20T03:13:25;95590.56;;;3.13;52.21
77871;BME280;67067;46.850;7.578;2023-12-20T03:14:27;95588.56;;;3.21;52.30
77871;BME280;67067;46.850;7.578;2023-12-20T03:15:28;95588.59;;;3.28;52.03
77871;BME280;67067;46.850;7.578;2023-12-20T03:16:31;95592.22;;;3.27;52.24
77871;BME280;67067;46.850;7.578;2023-12-20T03:17:37;95593.63;;;3.30;52.26
77871;BME280;67067;46.850;7.578;2023-12-20T03:18:39;95588.16;;;3.24;52.48
77871;BME280;67067;46.850;7.578;2023-12-20T03:19:41;95588.00;;;3.26;52.40
77871;BME280;67067;46.850;7.578;2023-12-20T03:20:45;95585.78;;;3.30;52.30
77871;BME280;67067;46.850;7.578;2023-12-20T03:21:49;95583.16;;;3.30;52.49
77871;BME280;67067;46.850;7.578;2023-12-20T03:22:50;95583.16;;;3.30;52.42
77871;BME280;67067;46.850;7.578;2023-12-20T03:23:52;95577.94;;;3.30;52.58
77871;BME280;67067;46.850;7.578;2023-12-20T03:24:54;95572.69;;;3.30;52.39
77871;BME280;67067;46.850;7.578;2023-12-20T03:25:56;95570.28;;;3.28;52.35
77871;BME280;67067;46.850;7.578;2023-12-20T03:27:00;95572.47;;;3.24;52.45
77871;BME280;67067;46.850;7.578;2023-12-20T03:28:02;95570.47;;;3.20;52.34
77871;BME280;67067;46.850;7.578;2023-12-20T03:29:07;95569.03;;;3.17;52.58
77871;BME280;67067;46.850;7.578;2023-12-20T03:30:09;95567.41;;;3.16;52.85
77871;BME280;67067;46.850;7.578;2023-12-20T03:31:11;95564.81;;;3.16;52.97
77871;BME280;67067;46.850;7.578;2023-12-20T03:32:13;95559.97;;;3.13;53.31
77871;BME280;67067;46.850;7.578;2023-12-20T03:33:16;95567.25;;;3.18;53.29
77871;BME280;67067;46.850;7.578;2023-12-20T03:34:22;95562.41;;;3.21;53.37
77871;BME280;67067;46.850;7.578;2023-12-20T03:35:25;95556.97;;;3.16;53.58
77871;BME280;67067;46.850;7.578;2023-12-20T03:36:28;95567.63;;;3.21;53.69
77871;BME280;67067;46.850;7.578;2023-12-20T03:37:32;95562.00;;;3.24;53.52
77871;BME280;67067;46.850;7.578;2023-12-20T03:38:34;95562.78;;;3.11;53.88
77871;BME280;67067;46.850;7.578;2023-12-20T03:39:36;95549.91;;;3.10;53.80
77871;BME280;67067;46.850;7.578;2023-12-20T03:40:38;95560.00;;;3.20;53.55
77871;BME280;67067;46.850;7.578;2023-12-20T03:41:39;95557.75;;;3.10;53.85
77871;BME280;67067;46.850;7.578;2023-12-20T03:42:41;95557.00;;;3.23;53.40
77871;BME280;67067;46.850;7.578;2023-12-20T03:43:43;95560.19;;;3.11;53.58
77871;BME280;67067;46.850;7.578;2023-12-20T03:44:47;95555.16;;;3.23;53.49
77871;BME280;67067;46.850;7.578;2023-12-20T03:45:48;95551.97;;;3.28;53.92
77871;BME280;67067;46.850;7.578;2023-12-20T03:46:50;95552.50;;;3.10;54.08
77871;BME280;67067;46.850;7.578;2023-12-20T03:47:52;95554.75;;;3.20;54.00
77871;BME280;67067;46.850;7.578;2023-12-20T03:48:58;95556.16;;;3.22;54.02
77871;BME280;67067;46.850;7.578;2023-12-20T03:50:05;95547.53;;;3.29;53.64
77871;BME280;67067;46.850;7.578;2023-12-20T03:51:08;95554.78;;;3.26;53.49
77871;BME280;67067;46.850;7.578;2023-12-20T03:52:09;95566.84;;;3.27;53.84
77871;BME280;67067;46.850;7.578;2023-12-20T03:53:15;95566.25;;;3.25;53.84
77871;BME280;67067;46.850;7.578;2023-12-20T03:54:17;95568.06;;;3.25;53.68
77871;BME280;67067;46.850;7.578;2023-12-20T03:55:20;95566.25;;;3.25;53.67
77871;BME280;67067;46.850;7.578;2023-12-20T03:56:21;95571.03;;;3.15;53.87
77871;BME280;67067;46.850;7.578;2023-12-20T03:57:23;95577.50;;;3.19;53.91
77871;BME280;67067;46.850;7.578;2023-12-20T03:58:25;95577.47;;;3.13;54.36
77871;BME280;67067;46.850;7.578;2023-12-20T03:59:26;95577.09;;;3.16;54.31
77871;BME280;67067;46.850;7.578;2023-12-20T04:00:28;95571.00;;;3.02;54.45
77871;BME280;67067;46.850;7.578;2023-12-20T04:01:33;95580.06;;;3.06;54.58
77871;BME280;67067;46.850;7.578;2023-12-20T04:02:35;95578.66;;;3.10;54.49
77871;BME280;67067;46.850;7.578;2023-12-20T04:03:38;95572.59;;;3.03;54.78
77871;BME280;67067;46.850;7.578;2023-12-20T04:04:40;95574.44;;;3.09;54.72
77871;BME280;67067;46.850;7.578;2023-12-20T04:05:42;95574.44;;;3.09;55.03
77871;BME280;67067;46.850;7.578;2023-12-20T04:06:45;95582.91;;;3.11;55.03
77871;BME280;67067;46.850;7.578;2023-12-20T04:07:46;95586.50;;;3.10;55.40
77871;BME280;67067;46.850;7.578;2023-12-20T04:08:49;95569.78;;;3.04;55.54
77871;BME280;67067;46.850;7.578;2023-12-20T04:09:51;95573.25;;;3.11;55.22
77871;BME280;67067;46.850;7.578;2023-12-20T04:10:52;95568.56;;;3.00;55.81
77871;BME280;67067;46.850;7.578;2023-12-20T04:11:54;95570.00;;;3.09;55.63
77871;BME280;67067;46.850;7.578;2023-12-20T04:12:58;95567.25;;;3.18;55.70
77871;BME280;67067;46.850;7.578;2023-12-20T04:14:02;95570.84;;;3.17;56.13
77871;BME280;67067;46.850;7.578;2023-12-20T04:15:04;95567.63;;;3.21;56.20
77871;BME280;67067;46.850;7.578;2023-12-20T04:16:11;95571.69;;;3.31;55.91
77871;BME280;67067;46.850;7.578;2023-12-20T04:17:13;95577.72;;;3.24;56.03
77871;BME280;67067;46.850;7.578;2023-12-20T04:18:17;95572.50;;;3.38;56.09
77871;BME280;67067;46.850;7.578;2023-12-20T04:19:19;95579.75;;;3.29;56.11
77871;BME280;67067;46.850;7.578;2023-12-20T04:20:20;95569.31;;;3.43;55.84
77871;BME280;67067;46.850;7.578;2023-12-20T04:21:22;95573.38;;;3.45;55.50
77871;BME280;67067;46.850;7.578;2023-12-20T04:22:24;95577.53;;;3.33;55.94
77871;BME280;67067;46.850;7.578;2023-12-20T04:23:25;95573.72;;;3.42;55.83
77871;BME280;67067;46.850;7.578;2023-12-20T04:24:27;95581.81;;;3.47;56.10
77871;BME280;67067;46.850;7.578;2023-12-20T04:25:29;95584.03;;;3.50;56.09
77871;BME280;67067;46.850;7.578;2023-12-20T04:26:30;95590.69;;;3.46;56.11
77871;BME280;67067;46.850;7.578;2023-12-20T04:27:35;95585.88;;;3.57;55.95
77871;BME280;67067;46.850;7.578;2023-12-20T04:28:39;95588.47;;;3.63;55.83
77871;BME280;67067;46.850;7.578;2023-12-20T04:29:45;95590.31;;;3.69;56.02
77871;BME280;67067;46.850;7.578;2023-12-20T04:30:47;95592.13;;;3.76;55.75
77871;BME280;67067;46.850;7.578;2023-12-20T04:31:49;95595.59;;;3.83;55.59
77871;BME280;67067;46.850;7.578;2023-12-20T04:32:52;95593.97;;;3.89;55.59
77871;BME280;67067;46.850;7.578;2023-12-20T04:33:54;95599.41;;;3.80;55.62
77871;BME280;67067;46.850;7.578;2023-12-20T04:34:56;95599.66;;;3.92;55.57
77871;BME280;67067;46.850;7.578;2023-12-20T04:35:58;95606.91;;;3.90;55.77
77871;BME280;67067;46.850;7.578;2023-12-20T04:37:01;95606.28;;;3.95;55.62
77871;BME280;67067;46.850;7.578;2023-12-20T04:38:03;95608.09;;;4.01;55.79
77871;BME280;67067;46.850;7.578;2023-12-20T04:39:05;95613.94;;;4.03;55.91
77871;BME280;67067;46.850;7.578;2023-12-20T04:40:08;95608.72;;;4.10;55.61
77871;BME280;67067;46.850;7.578;2023-12-20T04:41:12;95612.75;;;4.06;55.86
77871;BME280;67067;46.850;7.578;2023-12-20T04:42:17;95614.56;;;4.05;55.79
77871;BME280;67067;46.850;7.578;2023-12-20T04:43:19;95620.03;;;4.10;55.91
77871;BME280;67067;46.850;7.578;2023-12-20T04:44:24;95631.88;;;4.06;56.10
77871;BME280;67067;46.850;7.578;2023-12-20T04:45:25;95623.44;;;4.11;56.10
77871;BME280;67067;46.850;7.578;2023-12-20T04:46:27;95633.50;;;4.01;56.17
77871;BME280;67067;46.850;7.578;2023-12-20T04:47:31;95633.75;;;4.12;56.01
77871;BME280;67067;46.850;7.578;2023-12-20T04:48:36;95629.72;;;4.17;56.06
77871;BME280;67067;46.850;7.578;2023-12-20T04:49:38;95634.34;;;4.15;56.19
77871;BME280;67067;46.850;7.578;2023-12-20T04:50:40;95632.31;;;4.17;56.01
77871;BME280;67067;46.850;7.578;2023-12-20T04:51:42;95633.94;;;4.18;56.05
77871;BME280;67067;46.850;7.578;2023-12-20T04:52:43;95643.97;;;4.07;56.22
77871;BME280;67067;46.850;7.578;2023-12-20T04:53:45;95632.72;;;4.20;55.57
77871;BME280;67067;46.850;7.578;2023-12-20T04:54:47;95638.38;;;4.10;55.82
77871;BME280;67067;46.850;7.578;2023-12-20T04:55:51;95636.16;;;4.21;55.60
77871;BME280;67067;46.850;7.578;2023-12-20T04:56:54;95635.97;;;4.16;55.55
77871;BME280;67067;46.850;7.578;2023-12-20T04:57:57;95636.75;;;4.23;55.62
77871;BME280;67067;46.850;7.578;2023-12-20T04:59:01;95637.97;;;4.27;55.52
77871;BME280;67067;46.850;7.578;2023-12-20T05:00:03;95635.97;;;4.29;55.73
77871;BME280;67067;46.850;7.578;2023-12-20T05:02:15;95641.34;;;3.94;56.38
77871;BME280;67067;46.850;7.578;2023-12-20T05:03:17;95650.75;;;3.81;56.59
77871;BME280;67067;46.850;7.578;2023-12-20T05:04:21;95651.19;;;3.85;56.68
77871;BME280;67067;46.850;7.578;2023-12-20T05:05:22;95657.22;;;3.79;56.96
77871;BME280;67067;46.850;7.578;2023-12-20T05:06:24;95641.75;;;3.91;56.41
77871;BME280;67067;46.850;7.578;2023-12-20T05:07:26;95653.81;;;3.85;56.76
77871;BME280;67067;46.850;7.578;2023-12-20T05:08:28;95643.16;;;4.00;56.61
77871;BME280;67067;46.850;7.578;2023-12-20T05:09:29;95653.66;;;3.93;56.52
77871;BME280;67067;46.850;7.578;2023-12-20T05:10:31;95655.88;;;4.03;56.39
77871;BME280;67067;46.850;7.578;2023-12-20T05:11:33;95652.06;;;4.12;55.90
77871;BME280;67067;46.850;7.578;2023-12-20T05:12:35;95640.19;;;4.17;56.27
77871;BME280;67067;46.850;7.578;2023-12-20T05:13:37;95646.41;;;4.22;56.03
77871;BME280;67067;46.850;7.578;2023-12-20T05:14:51;95646.25;;;4.24;55.96
77871;BME280;67067;46.850;7.578;2023-12-20T05:15:53;95638.38;;;4.24;55.79
77871;BME280;67067;46.850;7.578;2023-12-20T05:16:55;95652.69;;;4.28;55.80
77871;BME280;67067;46.850;7.578;2023-12-20T05:18:00;95649.84;;;4.30;55.35
77871;BME280;67067;46.850;7.578;2023-12-20T05:19:02;95641.81;;;4.31;55.31
77871;BME280;67067;46.850;7.578;2023-12-20T05:20:08;95645.44;;;4.30;55.39
77871;BME280;67067;46.850;7.578;2023-12-20T05:21:10;95650.47;;;4.32;55.53
77871;BME280;67067;46.850;7.578;2023-12-20T05:22:12;95652.06;;;4.33;55.50
77871;BME280;67067;46.850;7.578;2023-12-20T05:23:14;95649.41;;;3.99;55.97
77871;BME280;67067;46.850;7.578;2023-12-20T05:24:16;95652.06;;;4.19;55.96
77871;BME280;67067;46.850;7.578;2023-12-20T05:25:18;95652.28;;;4.24;55.89
77871;BME280;67067;46.850;7.578;2023-12-20T05:26:20;95661.75;;;4.25;55.64
77871;BME280;67067;46.850;7.578;2023-12-20T05:27:22;95651.22;;;4.05;56.04
77871;BME280;67067;46.850;7.578;2023-12-20T05:28:26;95660.94;;;4.11;55.88
77871;BME280;67067;46.850;7.578;2023-12-20T05:29:31;95652.47;;;4.16;55.92
77871;BME280;67067;46.850;7.578;2023-12-20T05:30:33;95658.06;;;3.93;56.11
77871;BME280;67067;46.850;7.578;2023-12-20T05:31:35;95659.09;;;4.05;55.62
77871;BME280;67067;46.850;7.578;2023-12-20T05:32:37;95663.53;;;4.05;55.95
77871;BME280;67067;46.850;7.578;2023-12-20T05:33:38;95668.56;;;4.06;55.93
77871;BME280;67067;46.850;7.578;2023-12-20T05:34:40;95667.19;;;4.10;55.60
77871;BME280;67067;46.850;7.578;2023-12-20T05:35:42;95681.09;;;4.18;55.67
77871;BME280;67067;46.850;7.578;2023-12-20T05:36:44;95671.03;;;4.15;55.75
77871;BME280;67067;46.850;7.578;2023-12-20T05:37:46;95678.28;;;4.19;55.75
77871;BME280;67067;46.850;7.578;2023-12-20T05:38:48;95672.25;;;4.19;55.62
77871;BME280;67067;46.850;7.578;2023-12-20T05:39:50;95677.06;;;4.15;55.40
77871;BME280;67067;46.850;7.578;2023-12-20T05:40:51;95680.44;;;4.02;55.50
77871;BME280;67067;46.850;7.578;2023-12-20T05:41:58;95678.25;;;4.06;55.67
77871;BME280;67067;46.850;7.578;2023-12-20T05:43:02;95685.06;;;4.00;55.44
77871;BME280;67067;46.850;7.578;2023-12-20T05:44:04;95691.31;;;3.99;55.63
77871;BME280;67067;46.850;7.578;2023-12-20T05:45:06;95690.03;;;3.81;55.83
77871;BME280;67067;46.850;7.578;2023-12-20T05:46:10;95684.66;;;3.90;55.76
77871;BME280;67067;46.850;7.578;2023-12-20T05:47:13;95695.50;;;3.87;55.86
77871;BME280;67067;46.850;7.578;2023-12-20T05:48:15;95688.03;;;3.83;55.76
77871;BME280;67067;46.850;7.578;2023-12-20T05:49:17;95694.88;;;3.84;55.83